Dunbar, United Kingdom
Current Conditions -  °F | °C
As of 12:50 PM on Thursday 23 Oct 2014 (Local Time) from EGQL Reporting Station
Broken Clouds Broken Clouds  
Wind Chill: 14°   Ceiling: 16000
Heat Index: 14°   Visibility: 6mi
Dew Point: 10°   Wind: 18mph
Humidity: 77%   Direction: 250°WSW
Pressure: 29.74"   Gusts: NA
Location:  56°N, 2.51°W
Report Text: EGQL 231150Z 25016KT 9999 FEW015 SCT030 BKN160 14/10 Q1007 BLU
Loading
Personal Weather Stations






























Interactive Weather Map
Tropical Storm Tracking
New forecast layout! Learn more

10-Day Weather Forecast

Advertisements
Track Severe Weather on mobile